createdAt,value
2023-04-02T00:01:33.218Z,11.47
2023-04-02T00:04:38.134Z,11.39
2023-04-02T00:07:41.170Z,11.41
2023-04-02T00:10:48.475Z,11.43
2023-04-02T00:13:52.195Z,11.25
2023-04-02T00:16:57.073Z,11.12
2023-04-02T00:20:08.191Z,11.04
2023-04-02T00:23:13.534Z,11.04
2023-04-02T00:26:37.150Z,11.08
2023-04-02T00:29:55.754Z,11.00
2023-04-02T00:32:59.713Z,11.01
2023-04-02T00:36:07.990Z,11.05
2023-04-02T00:39:19.299Z,11.04
2023-04-02T00:42:25.272Z,11.08
2023-04-02T00:45:35.771Z,11.11
2023-04-02T00:48:59.034Z,11.22
2023-04-02T00:52:13.252Z,11.19
2023-04-02T00:55:17.965Z,11.19
2023-04-02T00:58:29.992Z,11.24
2023-04-02T01:01:42.598Z,11.19
2023-04-02T01:05:05.599Z,11.17
2023-04-02T01:08:27.546Z,11.23
2023-04-02T01:12:01.072Z,11.27
2023-04-02T01:15:21.487Z,11.28
2023-04-02T01:18:51.377Z,11.31
2023-04-02T01:22:00.747Z,11.28
2023-04-02T01:25:06.537Z,11.33
2023-04-02T01:28:32.065Z,11.37
2023-04-02T01:31:36.882Z,11.32
2023-04-02T01:34:40.338Z,11.28
2023-04-02T01:37:46.767Z,11.34
2023-04-02T01:40:58.721Z,11.32
2023-04-02T01:44:18.591Z,11.31
2023-04-02T01:47:29.063Z,11.33
2023-04-02T01:50:38.452Z,11.28
2023-04-02T01:53:41.300Z,11.32
2023-04-02T01:56:45.779Z,11.44
2023-04-02T01:59:48.748Z,11.52
2023-04-02T02:02:52.185Z,11.38
2023-04-02T02:05:56.805Z,11.29
2023-04-02T02:09:04.522Z,11.25
2023-04-02T02:12:07.453Z,11.21
2023-04-02T02:15:17.169Z,11.24
2023-04-02T02:18:23.558Z,11.24
2023-04-02T02:21:52.901Z,11.29
2023-04-02T02:24:58.720Z,11.36
2023-04-02T02:28:19.099Z,11.31
2023-04-02T02:31:29.269Z,11.25
2023-04-02T02:34:41.613Z,11.27
2023-04-02T02:37:47.763Z,11.22
2023-04-02T02:40:56.686Z,11.28
2023-04-02T02:44:03.067Z,11.30
2023-04-02T02:47:13.933Z,11.24
2023-04-02T02:50:23.723Z,11.26
2023-04-02T02:53:26.941Z,11.26
2023-04-02T02:56:34.450Z,11.24
2023-04-02T02:59:38.380Z,11.24
2023-04-02T03:02:43.518Z,11.25
2023-04-02T03:05:53.017Z,11.27
2023-04-02T03:09:07.574Z,11.22
2023-04-02T03:12:13.750Z,11.37
2023-04-02T03:15:35.546Z,11.29
2023-04-02T03:18:41.666Z,11.19
2023-04-02T03:21:51.807Z,11.28
2023-04-02T03:25:05.956Z,11.14
2023-04-02T03:28:17.790Z,11.08
2023-04-02T03:31:49.793Z,11.08
2023-04-02T03:34:58.209Z,11.09
2023-04-02T03:38:11.865Z,11.13
2023-04-02T03:41:24.812Z,11.15
2023-04-02T03:44:45.962Z,11.20
2023-04-02T03:48:06.143Z,11.05
2023-04-02T03:51:22.070Z,11.17
2023-04-02T03:54:25.502Z,11.07
2023-04-02T03:57:38.418Z,11.00
2023-04-02T04:01:06.598Z,10.98
2023-04-02T04:04:16.611Z,11.06
2023-04-02T04:07:29.729Z,10.99
2023-04-02T04:10:34.383Z,10.93
2023-04-02T04:13:53.653Z,10.86
2023-04-02T04:16:56.855Z,11.00
2023-04-02T04:20:08.265Z,10.88
2023-04-02T04:23:20.038Z,10.90
2023-04-02T04:26:35.812Z,10.90
2023-04-02T04:30:05.869Z,10.91
2023-04-02T04:33:34.615Z,10.85
2023-04-02T04:36:48.053Z,10.91
2023-04-02T04:39:56.772Z,10.89
2023-04-02T04:43:06.076Z,10.92
2023-04-02T04:46:19.496Z,10.99
2023-04-02T04:49:22.738Z,11.09
2023-04-02T04:52:32.237Z,11.06
2023-04-02T04:55:39.721Z,10.99
2023-04-02T04:59:04.176Z,10.99
2023-04-02T05:02:24.106Z,11.08
2023-04-02T05:05:34.558Z,11.01
2023-04-02T05:08:45.436Z,11.06
2023-04-02T05:12:19.368Z,11.14
2023-04-02T05:15:32.177Z,11.17
2023-04-02T05:18:40.381Z,11.26
2023-04-02T05:21:50.408Z,11.27
2023-04-02T05:25:23.388Z,11.28
2023-04-02T05:28:32.073Z,11.37
2023-04-02T05:31:44.146Z,11.37
2023-04-02T05:34:53.206Z,11.55
2023-04-02T05:37:55.881Z,11.68
2023-04-02T05:41:17.329Z,11.74
2023-04-02T05:44:28.569Z,11.94
2023-04-02T05:47:34.316Z,12.07
2023-04-02T05:50:43.339Z,12.23
2023-04-02T05:53:53.682Z,12.40
2023-04-02T05:57:03.530Z,12.55
2023-04-02T06:00:18.131Z,12.69
2023-04-02T06:03:27.475Z,12.79
2023-04-02T06:06:42.606Z,12.83
2023-04-02T06:09:56.152Z,12.94
2023-04-02T06:13:08.634Z,13.13
2023-04-02T06:16:16.691Z,13.38
2023-04-02T06:19:27.514Z,13.62
2023-04-02T06:22:37.930Z,13.78
2023-04-02T06:26:01.780Z,13.92
2023-04-02T06:29:24.880Z,14.17
2023-04-02T06:32:29.600Z,14.25
2023-04-02T06:35:35.996Z,14.50
2023-04-02T06:38:40.911Z,14.74
2023-04-02T06:41:46.735Z,14.80
2023-04-02T06:44:52.478Z,15.07
2023-04-02T06:48:01.997Z,15.45
2023-04-02T06:51:17.851Z,15.76
2023-04-02T06:54:21.773Z,15.83
2023-04-02T06:57:25.083Z,15.76
2023-04-02T07:00:38.485Z,15.84
2023-04-02T07:03:43.005Z,16.05
2023-04-02T07:06:46.799Z,16.10
2023-04-02T07:09:49.983Z,16.43
2023-04-02T07:12:52.914Z,16.84
2023-04-02T07:15:57.427Z,17.49
2023-04-02T07:19:01.302Z,18.01
2023-04-02T07:22:05.782Z,18.03
2023-04-02T07:25:09.633Z,18.07
2023-04-02T07:28:14.038Z,18.11
2023-04-02T07:31:17.237Z,18.07
2023-04-02T07:34:20.054Z,17.45
2023-04-02T07:37:22.846Z,16.52
2023-04-02T07:40:25.737Z,16.10
2023-04-02T07:43:28.399Z,16.26
2023-04-02T07:46:31.111Z,16.62
2023-04-02T07:49:34.041Z,16.93
2023-04-02T07:52:43.895Z,17.29
2023-04-02T07:55:52.466Z,17.56
2023-04-02T07:58:55.484Z,18.08
2023-04-02T08:01:58.838Z,18.23
2023-04-02T08:05:02.606Z,18.68
2023-04-02T08:08:06.084Z,19.32
2023-04-02T08:11:09.735Z,19.44
2023-04-02T08:14:12.609Z,19.65
2023-04-02T08:17:15.948Z,19.67
2023-04-02T08:20:19.458Z,19.82
2023-04-02T08:23:23.099Z,19.73
2023-04-02T08:26:26.098Z,19.73
2023-04-02T08:29:32.323Z,19.85
2023-04-02T08:32:35.903Z,20.11
2023-04-02T08:35:39.589Z,20.84
2023-04-02T08:38:42.337Z,21.88
2023-04-02T08:42:14.595Z,22.05
2023-04-02T08:45:32.379Z,22.14
2023-04-02T08:48:40.758Z,23.02
2023-04-02T08:51:46.207Z,24.12
2023-04-02T08:54:50.426Z,25.32
2023-04-02T08:58:37.848Z,26.27
2023-04-02T09:02:02.708Z,27.25
2023-04-02T09:05:08.251Z,28.08
2023-04-02T09:08:20.661Z,28.25
2023-04-02T09:11:23.130Z,27.95
2023-04-02T09:14:45.257Z,26.68
2023-04-02T09:17:54.200Z,25.64
2023-04-02T09:20:58.207Z,24.95
2023-04-02T09:24:01.871Z,24.49
2023-04-02T09:27:22.550Z,24.05
2023-04-02T09:31:02.203Z,23.53
2023-04-02T09:34:35.353Z,23.11
2023-04-02T09:37:37.967Z,22.47
2023-04-02T09:40:48.870Z,22.08
2023-04-02T09:44:19.173Z,21.78
2023-04-02T09:47:27.363Z,21.54
2023-04-02T09:50:31.782Z,21.13
2023-04-02T09:53:37.363Z,20.72
2023-04-02T09:56:41.220Z,20.45
2023-04-02T09:59:44.434Z,20.37
2023-04-02T10:02:59.537Z,20.69
2023-04-02T10:06:14.894Z,20.58
2023-04-02T10:09:32.538Z,20.58
2023-04-02T10:12:41.150Z,20.75
2023-04-02T10:16:09.420Z,21.01
2023-04-02T10:19:27.833Z,20.95
2023-04-02T10:22:30.810Z,20.83
2023-04-02T10:25:43.138Z,20.77
2023-04-02T10:29:06.771Z,20.78
2023-04-02T10:32:32.299Z,21.14
2023-04-02T10:35:46.219Z,21.20
2023-04-02T10:38:53.265Z,21.10
2023-04-02T10:42:11.206Z,21.71
2023-04-02T10:45:40.002Z,22.86
2023-04-02T10:49:06.031Z,23.39
2023-04-02T10:52:17.698Z,24.13
2023-04-02T10:55:29.009Z,24.69
2023-04-02T10:58:37.642Z,25.73
2023-04-02T11:01:43.314Z,26.29
2023-04-02T11:04:47.059Z,26.42
2023-04-02T11:08:04.363Z,25.93
2023-04-02T11:11:14.374Z,25.37
2023-04-02T11:14:29.754Z,24.80
2023-04-02T11:17:32.934Z,24.66
2023-04-02T11:21:04.783Z,25.29
2023-04-02T11:24:31.755Z,26.18
2023-04-02T11:27:34.586Z,27.08
2023-04-02T11:30:37.926Z,27.56
2023-04-02T11:33:44.999Z,27.35
2023-04-02T11:36:55.466Z,26.54
2023-04-02T11:40:07.834Z,26.05
2023-04-02T11:43:32.808Z,25.42
2023-04-02T11:46:40.678Z,25.29
2023-04-02T11:50:04.465Z,25.35
2023-04-02T11:53:16.306Z,24.65
2023-04-02T11:56:31.962Z,23.80
2023-04-02T11:59:50.736Z,23.29
2023-04-02T12:03:03.579Z,24.04
2023-04-02T12:06:39.917Z,24.71
2023-04-02T12:09:59.080Z,25.16
2023-04-02T12:13:02.037Z,25.49
2023-04-02T12:16:06.634Z,25.67
2023-04-02T12:19:10.002Z,26.00
2023-04-02T12:22:25.053Z,26.03
2023-04-02T12:25:32.820Z,25.92
2023-04-02T12:28:38.044Z,25.76
2023-04-02T12:31:46.500Z,25.77
2023-04-02T12:34:51.334Z,25.98
2023-04-02T12:37:54.398Z,25.28
2023-04-02T12:40:59.825Z,24.91
2023-04-02T12:44:15.554Z,24.97
2023-04-02T12:47:18.476Z,25.05
2023-04-02T12:50:22.963Z,25.35
2023-04-02T12:53:41.207Z,25.56
2023-04-02T12:56:44.827Z,25.50
2023-04-02T12:59:48.052Z,25.38
2023-04-02T13:03:15.005Z,25.21
2023-04-02T13:06:23.215Z,25.45
2023-04-02T13:09:36.174Z,25.60
2023-04-02T13:12:41.145Z,25.33
2023-04-02T13:15:44.407Z,25.28
2023-04-02T13:18:49.142Z,25.37
2023-04-02T13:21:53.095Z,25.39
2023-04-02T13:24:56.360Z,24.86
2023-04-02T13:27:59.248Z,24.16
2023-04-02T13:31:02.246Z,24.00
2023-04-02T13:34:05.067Z,23.35
2023-04-02T13:37:12.226Z,22.75
2023-04-02T13:40:17.913Z,22.65
2023-04-02T13:43:22.957Z,22.69
2023-04-02T13:46:31.159Z,22.79
2023-04-02T13:49:34.061Z,22.96
2023-04-02T13:52:37.387Z,23.04
2023-04-02T13:55:42.465Z,22.86
2023-04-02T13:58:47.981Z,22.81
2023-04-02T14:01:53.361Z,22.61
2023-04-02T14:05:27.338Z,22.51
2023-04-02T14:09:02.185Z,22.29
2023-04-02T14:12:05.080Z,22.28
2023-04-02T14:15:29.752Z,22.30
2023-04-02T14:19:06.766Z,22.11
2023-04-02T14:22:30.468Z,22.04
2023-04-02T14:26:05.520Z,21.81
2023-04-02T14:32:39.043Z,21.45
2023-04-02T14:35:48.623Z,21.26
2023-04-02T14:39:17.583Z,21.23
2023-04-02T14:43:05.126Z,20.90
2023-04-02T14:46:10.606Z,20.84
2023-04-02T14:49:24.251Z,20.68
2023-04-02T14:52:31.667Z,20.66
2023-04-02T14:55:43.623Z,20.34
2023-04-02T14:58:52.677Z,19.85
2023-04-02T15:02:08.924Z,19.38
2023-04-02T15:05:24.485Z,18.94
2023-04-02T15:09:09.356Z,18.50
2023-04-02T15:12:27.749Z,17.95
2023-04-02T15:15:49.006Z,17.52
2023-04-02T15:19:00.711Z,17.02
2023-04-02T15:22:15.765Z,16.76
2023-04-02T15:25:42.898Z,16.30
2023-04-02T15:29:29.018Z,15.90
2023-04-02T15:32:32.542Z,15.55
2023-04-02T15:36:15.700Z,15.28
2023-04-02T15:39:52.467Z,15.25
2023-04-02T15:43:15.466Z,15.17
2023-04-02T15:46:18.345Z,14.99
2023-04-02T15:49:33.682Z,14.71
2023-04-02T15:52:57.592Z,14.58
2023-04-02T15:56:33.838Z,14.32
2023-04-02T15:59:43.070Z,14.23
2023-04-02T16:03:02.638Z,13.89
2023-04-02T16:06:17.519Z,13.92
2023-04-02T16:09:27.369Z,13.98
2023-04-02T16:12:33.537Z,13.96
2023-04-02T16:15:42.481Z,13.83
2023-04-02T16:19:20.929Z,13.77
2023-04-02T16:22:30.040Z,13.73
2023-04-02T16:25:44.937Z,13.81
2023-04-02T16:29:10.066Z,14.03
2023-04-02T16:32:37.771Z,14.13
2023-04-02T16:36:02.536Z,14.33
2023-04-02T16:39:17.543Z,14.49
2023-04-02T16:42:50.788Z,14.62
2023-04-02T16:45:56.196Z,14.74
2023-04-02T16:49:07.267Z,14.68
2023-04-02T16:52:40.656Z,14.65
2023-04-02T16:56:20.104Z,14.66
2023-04-02T17:00:07.755Z,14.66
2023-04-02T17:03:33.234Z,14.67
2023-04-02T17:06:42.160Z,14.50
2023-04-02T17:09:53.272Z,14.39
2023-04-02T17:13:15.497Z,14.39
2023-04-02T17:16:31.144Z,14.15
2023-04-02T17:19:34.105Z,14.00
2023-04-02T17:22:37.025Z,13.89
2023-04-02T17:25:48.187Z,13.90
2023-04-02T17:28:51.577Z,13.84
2023-04-02T17:32:01.356Z,13.64
2023-04-02T17:35:21.958Z,13.73
2023-04-02T17:38:39.792Z,13.60
2023-04-02T17:41:54.959Z,13.45
2023-04-02T17:45:49.428Z,13.32
2023-04-02T17:49:03.920Z,13.28
2023-04-02T17:52:23.191Z,13.11
2023-04-02T17:55:50.587Z,13.08
2023-04-02T17:59:20.961Z,13.01
2023-04-02T18:03:02.188Z,12.85
2023-04-02T18:06:11.608Z,12.81
2023-04-02T18:09:37.291Z,12.81
2023-04-02T18:12:45.943Z,12.74
2023-04-02T18:15:58.313Z,12.62
2023-04-02T18:19:14.959Z,12.54
2023-04-02T18:22:58.288Z,12.39
2023-04-02T18:26:01.192Z,12.41
2023-04-02T18:29:12.306Z,12.42
2023-04-02T18:32:17.811Z,12.31
2023-04-02T18:36:05.328Z,12.35
2023-04-02T18:39:21.729Z,12.27
2023-04-02T18:42:43.194Z,12.16
2023-04-02T18:45:58.870Z,11.97
2023-04-02T18:49:19.607Z,11.85
2023-04-02T18:52:24.869Z,11.72
2023-04-02T18:55:31.460Z,11.76
2023-04-02T18:58:49.803Z,11.65
2023-04-02T19:01:54.878Z,11.68
2023-04-02T19:05:23.059Z,11.49
2023-04-02T19:08:50.955Z,11.50
2023-04-02T19:11:53.884Z,11.34
2023-04-02T19:14:58.990Z,11.42
2023-04-02T19:18:04.984Z,11.36
2023-04-02T19:21:45.649Z,11.28
2023-04-02T19:25:00.580Z,11.36
2023-04-02T19:28:17.651Z,11.32
2023-04-02T19:31:53.242Z,11.16
2023-04-02T19:35:27.051Z,11.16
2023-04-02T19:39:01.000Z,11.26
2023-04-02T19:42:15.757Z,11.15
2023-04-02T19:45:24.394Z,11.04
2023-04-02T19:48:35.706Z,11.00
2023-04-02T19:51:38.556Z,11.06
2023-04-02T19:54:41.594Z,10.97
2023-04-02T19:57:44.576Z,10.95
2023-04-02T20:00:47.504Z,10.89
2023-04-02T20:03:50.513Z,10.90
2023-04-02T20:06:54.372Z,10.82
2023-04-02T20:09:57.259Z,10.85
2023-04-02T20:13:00.070Z,10.97
2023-04-02T20:16:04.685Z,10.85
2023-04-02T20:19:07.686Z,10.77
2023-04-02T20:22:10.725Z,10.81
2023-04-02T20:25:13.842Z,10.81
2023-04-02T20:28:16.693Z,10.78
2023-04-02T20:31:19.633Z,10.80
2023-04-02T20:34:22.652Z,10.83
2023-04-02T20:37:25.709Z,10.80
2023-04-02T20:40:28.778Z,10.92
2023-04-02T20:43:32.074Z,10.90
2023-04-02T20:46:34.766Z,10.85
2023-04-02T20:49:37.846Z,10.80
2023-04-02T20:52:40.922Z,10.86
2023-04-02T20:55:45.857Z,10.74
2023-04-02T20:58:49.272Z,10.75
2023-04-02T21:01:52.098Z,10.64
2023-04-02T21:04:54.930Z,10.62
2023-04-02T21:07:58.091Z,10.60
2023-04-02T21:11:02.802Z,10.60
2023-04-02T21:14:05.754Z,10.59
2023-04-02T21:17:08.888Z,10.68
2023-04-02T21:20:12.568Z,10.63
2023-04-02T21:23:15.997Z,10.52
2023-04-02T21:26:19.042Z,10.43
2023-04-02T21:29:21.933Z,10.44
2023-04-02T21:32:25.079Z,10.40
2023-04-02T21:35:27.942Z,10.43
2023-04-02T21:38:31.186Z,10.50
2023-04-02T21:41:36.733Z,10.42
2023-04-02T21:44:39.618Z,10.53
2023-04-02T21:47:42.448Z,10.50
2023-04-02T21:50:45.268Z,10.53
2023-04-02T21:53:49.235Z,10.34
2023-04-02T21:56:52.747Z,10.25
2023-04-02T21:59:57.013Z,10.17
2023-04-02T22:02:59.941Z,10.24
2023-04-02T22:06:08.097Z,10.23
2023-04-02T22:09:14.361Z,10.18
2023-04-02T22:12:17.142Z,10.22
2023-04-02T22:15:19.997Z,10.16
2023-04-02T22:18:22.869Z,10.08
2023-04-02T22:21:26.341Z,9.95
2023-04-02T22:24:29.394Z,10.04
2023-04-02T22:27:33.363Z,9.94
2023-04-02T22:30:37.750Z,9.97
2023-04-02T22:33:42.120Z,9.86
2023-04-02T22:36:44.902Z,9.90
2023-04-02T22:39:47.793Z,9.87
2023-04-02T22:42:50.792Z,9.88
2023-04-02T22:45:53.770Z,9.82
2023-04-02T22:48:56.974Z,9.74
2023-04-02T22:51:59.875Z,9.76
2023-04-02T22:55:02.853Z,9.81
2023-04-02T22:58:05.810Z,9.69
2023-04-02T23:01:19.423Z,9.68
2023-04-02T23:04:22.235Z,9.68
2023-04-02T23:07:25.068Z,9.74
2023-04-02T23:10:28.836Z,9.88
2023-04-02T23:13:36.831Z,9.78
2023-04-02T23:16:39.645Z,9.75
2023-04-02T23:19:42.674Z,9.68
2023-04-02T23:22:45.560Z,9.72
2023-04-02T23:25:48.394Z,9.69
2023-04-02T23:28:51.429Z,9.77
2023-04-02T23:31:54.269Z,9.73
2023-04-02T23:34:57.282Z,9.70
2023-04-02T23:38:00.128Z,9.69
2023-04-02T23:41:03.192Z,9.72
2023-04-02T23:44:08.749Z,9.75
2023-04-02T23:47:11.560Z,9.77
2023-04-02T23:50:14.544Z,9.73
2023-04-02T23:53:18.725Z,9.65
2023-04-02T23:56:22.485Z,9.60
2023-04-02T23:59:25.485Z,9.75
